Terminal Aerodrome Forecast
Issued by NWS Grand Junction, CO

Home | Current Version | Previous Version | Text Only | Print | Product List | Glossary On
Versions: 1 2 3 4 5 6 7 8 9 10 11 12 13 14 15
000
FTUS45 KGJT 250520
TAFGJT
TAF
KGJT 250520Z 2506/2606 12007KT P6SM SKC
     FM251400 13012KT P6SM FEW250
     FM251800 26006KT P6SM SCT250
     FM252100 27009KT P6SM FEW110 SCT250
     FM260300 10006KT P6SM SCT250=

USA.gov is the U.S. government's official web portal to all federal, state and local government web resources and services.